sensor_id;sensor_type;location;lat;lon;timestamp;temperature;humidity
3564;DHT22;1796;52.388;13.096;2023-03-16T00:00:18;-1.00;99.90
3564;DHT22;1796;52.388;13.096;2023-03-16T00:02:46;-1.10;99.90
3564;DHT22;1796;52.388;13.096;2023-03-16T00:05:13;-1.00;99.90
3564;DHT22;1796;52.388;13.096;2023-03-16T00:07:40;-1.00;99.90
3564;DHT22;1796;52.388;13.096;2023-03-16T00:10:08;-0.90;99.90
3564;DHT22;1796;52.388;13.096;2023-03-16T00:12:37;-1.00;99.90
3564;DHT22;1796;52.388;13.096;2023-03-16T00:15:06;-1.00;99.90
3564;DHT22;1796;52.388;13.096;2023-03-16T00:17:33;-1.10;99.90
3564;DHT22;1796;52.388;13.096;2023-03-16T00:20:00;-1.10;99.90
3564;DHT22;1796;52.388;13.096;2023-03-16T00:22:30;-1.20;99.90
3564;DHT22;1796;52.388;13.096;2023-03-16T00:24:57;-1.20;99.90
3564;DHT22;1796;52.388;13.096;2023-03-16T00:27:25;-1.30;99.90
3564;DHT22;1796;52.388;13.096;2023-03-16T00:29:53;-1.30;99.90
3564;DHT22;1796;52.388;13.096;2023-03-16T00:32:24;-1.40;99.90
3564;DHT22;1796;52.388;13.096;2023-03-16T00:34:51;-1.40;99.90
3564;DHT22;1796;52.388;13.096;2023-03-16T00:37:20;-1.50;99.90
3564;DHT22;1796;52.388;13.096;2023-03-16T00:39:48;-1.50;99.90
3564;DHT22;1796;52.388;13.096;2023-03-16T00:42:16;-1.50;99.90
3564;DHT22;1796;52.388;13.096;2023-03-16T00:44:44;-1.60;99.90
3564;DHT22;1796;52.388;13.096;2023-03-16T00:47:11;-1.60;99.90
3564;DHT22;1796;52.388;13.096;2023-03-16T00:49:42;-1.70;99.90
3564;DHT22;1796;52.388;13.096;2023-03-16T00:52:11;-1.70;99.90
3564;DHT22;1796;52.388;13.096;2023-03-16T00:54:40;-1.80;99.90
3564;DHT22;1796;52.388;13.096;2023-03-16T00:57:08;-1.80;99.90
3564;DHT22;1796;52.388;13.096;2023-03-16T00:59:36;-1.90;99.90
3564;DHT22;1796;52.388;13.096;2023-03-16T01:02:04;-1.50;99.90
3564;DHT22;1796;52.388;13.096;2023-03-16T01:04:31;-1.90;99.90
3564;DHT22;1796;52.388;13.096;2023-03-16T01:07:00;-1.90;99.90
3564;DHT22;1796;52.388;13.096;2023-03-16T01:09:27;-1.90;99.90
3564;DHT22;1796;52.388;13.096;2023-03-16T01:11:54;-1.90;99.90
3564;DHT22;1796;52.388;13.096;2023-03-16T01:14:21;-1.90;99.90
3564;DHT22;1796;52.388;13.096;2023-03-16T01:16:48;-1.90;99.90
3564;DHT22;1796;52.388;13.096;2023-03-16T01:19:16;-1.90;99.90
3564;DHT22;1796;52.388;13.096;2023-03-16T01:21:43;-1.90;99.90
3564;DHT22;1796;52.388;13.096;2023-03-16T01:24:12;-1.90;99.90
3564;DHT22;1796;52.388;13.096;2023-03-16T01:26:39;-1.80;99.90
3564;DHT22;1796;52.388;13.096;2023-03-16T01:29:06;-1.70;99.90
3564;DHT22;1796;52.388;13.096;2023-03-16T01:31:33;-1.70;99.90
3564;DHT22;1796;52.388;13.096;2023-03-16T01:34:00;-1.80;99.90
3564;DHT22;1796;52.388;13.096;2023-03-16T01:36:29;-1.80;99.90
3564;DHT22;1796;52.388;13.096;2023-03-16T01:38:57;-1.90;99.90
3564;DHT22;1796;52.388;13.096;2023-03-16T01:41:26;-1.90;99.90
3564;DHT22;1796;52.388;13.096;2023-03-16T01:43:53;-2.00;99.90
3564;DHT22;1796;52.388;13.096;2023-03-16T01:46:24;-2.00;99.90
3564;DHT22;1796;52.388;13.096;2023-03-16T01:48:59;-2.00;99.90
3564;DHT22;1796;52.388;13.096;2023-03-16T01:51:32;-2.00;99.90
3564;DHT22;1796;52.388;13.096;2023-03-16T01:54:03;-2.00;99.90
3564;DHT22;1796;52.388;13.096;2023-03-16T01:56:37;-2.10;99.90
3564;DHT22;1796;52.388;13.096;2023-03-16T01:59:09;-2.10;99.90
3564;DHT22;1796;52.388;13.096;2023-03-16T02:01:37;-2.10;99.90
3564;DHT22;1796;52.388;13.096;2023-03-16T02:04:21;-2.10;99.90
3564;DHT22;1796;52.388;13.096;2023-03-16T02:06:51;-2.10;99.90
3564;DHT22;1796;52.388;13.096;2023-03-16T02:09:19;-2.20;99.90
3564;DHT22;1796;52.388;13.096;2023-03-16T02:11:49;-2.20;99.90
3564;DHT22;1796;52.388;13.096;2023-03-16T02:14:16;-2.30;99.90
3564;DHT22;1796;52.388;13.096;2023-03-16T02:16:43;-2.30;99.90
3564;DHT22;1796;52.388;13.096;2023-03-16T02:19:18;-2.30;99.90
3564;DHT22;1796;52.388;13.096;2023-03-16T02:21:49;-2.30;99.90
3564;DHT22;1796;52.388;13.096;2023-03-16T02:24:20;-2.30;99.90
3564;DHT22;1796;52.388;13.096;2023-03-16T02:26:52;-2.30;99.90
3564;DHT22;1796;52.388;13.096;2023-03-16T02:29:45;-2.30;99.90
3564;DHT22;1796;52.388;13.096;2023-03-16T02:32:14;-2.30;99.90
3564;DHT22;1796;52.388;13.096;2023-03-16T02:34:42;-2.30;99.90
3564;DHT22;1796;52.388;13.096;2023-03-16T02:37:09;-2.30;99.90
3564;DHT22;1796;52.388;13.096;2023-03-16T02:39:36;-2.30;99.90
3564;DHT22;1796;52.388;13.096;2023-03-16T02:42:04;-2.40;99.90
3564;DHT22;1796;52.388;13.096;2023-03-16T02:44:33;-2.40;99.90
3564;DHT22;1796;52.388;13.096;2023-03-16T02:47:06;-2.50;99.90
3564;DHT22;1796;52.388;13.096;2023-03-16T02:49:37;-2.50;99.90
3564;DHT22;1796;52.388;13.096;2023-03-16T02:52:05;-2.60;99.90
3564;DHT22;1796;52.388;13.096;2023-03-16T02:54:32;-2.50;99.90
3564;DHT22;1796;52.388;13.096;2023-03-16T02:56:59;-2.60;99.90
3564;DHT22;1796;52.388;13.096;2023-03-16T02:59:26;-2.60;99.90
3564;DHT22;1796;52.388;13.096;2023-03-16T03:01:53;-2.60;99.90
3564;DHT22;1796;52.388;13.096;2023-03-16T03:04:21;-2.60;99.90
3564;DHT22;1796;52.388;13.096;2023-03-16T03:06:49;-2.60;99.90
3564;DHT22;1796;52.388;13.096;2023-03-16T03:09:17;-2.60;99.90
3564;DHT22;1796;52.388;13.096;2023-03-16T03:11:44;-2.50;99.90
3564;DHT22;1796;52.388;13.096;2023-03-16T03:14:12;-2.50;99.90
3564;DHT22;1796;52.388;13.096;2023-03-16T03:16:41;-2.50;99.90
3564;DHT22;1796;52.388;13.096;2023-03-16T03:19:11;-2.50;99.90
3564;DHT22;1796;52.388;13.096;2023-03-16T03:21:39;-2.50;99.90
3564;DHT22;1796;52.388;13.096;2023-03-16T03:24:07;-2.50;99.90
3564;DHT22;1796;52.388;13.096;2023-03-16T03:26:34;-2.50;99.90
3564;DHT22;1796;52.388;13.096;2023-03-16T03:29:02;-2.50;99.90
3564;DHT22;1796;52.388;13.096;2023-03-16T03:31:29;-2.50;99.90
3564;DHT22;1796;52.388;13.096;2023-03-16T03:33:56;-2.50;99.90
3564;DHT22;1796;52.388;13.096;2023-03-16T03:36:23;-2.50;99.90
3564;DHT22;1796;52.388;13.096;2023-03-16T03:38:51;-2.50;99.90
3564;DHT22;1796;52.388;13.096;2023-03-16T03:41:19;-2.50;99.90
3564;DHT22;1796;52.388;13.096;2023-03-16T03:43:46;-2.60;99.90
3564;DHT22;1796;52.388;13.096;2023-03-16T03:46:13;-2.70;99.90
3564;DHT22;1796;52.388;13.096;2023-03-16T03:48:40;-2.70;99.90
3564;DHT22;1796;52.388;13.096;2023-03-16T03:51:07;-2.70;99.90
3564;DHT22;1796;52.388;13.096;2023-03-16T03:53:34;-2.70;99.90
3564;DHT22;1796;52.388;13.096;2023-03-16T03:56:02;-2.70;99.90
3564;DHT22;1796;52.388;13.096;2023-03-16T03:58:29;-2.70;99.90
3564;DHT22;1796;52.388;13.096;2023-03-16T04:00:56;-2.60;99.90
3564;DHT22;1796;52.388;13.096;2023-03-16T04:03:23;-2.70;99.90
3564;DHT22;1796;52.388;13.096;2023-03-16T04:05:50;-2.70;99.90
3564;DHT22;1796;52.388;13.096;2023-03-16T04:08:17;-2.70;99.90
3564;DHT22;1796;52.388;13.096;2023-03-16T04:10:44;-2.70;99.90
3564;DHT22;1796;52.388;13.096;2023-03-16T04:13:12;-2.70;99.90
3564;DHT22;1796;52.388;13.096;2023-03-16T04:15:39;-2.80;99.90
3564;DHT22;1796;52.388;13.096;2023-03-16T04:18:06;-2.80;99.90
3564;DHT22;1796;52.388;13.096;2023-03-16T04:20:33;-2.80;99.90
3564;DHT22;1796;52.388;13.096;2023-03-16T04:23:00;-2.80;99.90
3564;DHT22;1796;52.388;13.096;2023-03-16T04:25:27;-2.80;99.90
3564;DHT22;1796;52.388;13.096;2023-03-16T04:27:55;-2.90;99.90
3564;DHT22;1796;52.388;13.096;2023-03-16T04:30:23;-2.90;99.90
3564;DHT22;1796;52.388;13.096;2023-03-16T04:32:50;-2.90;99.90
3564;DHT22;1796;52.388;13.096;2023-03-16T04:35:17;-2.90;99.90
3564;DHT22;1796;52.388;13.096;2023-03-16T04:37:44;-3.00;99.90
3564;DHT22;1796;52.388;13.096;2023-03-16T04:40:12;-2.90;99.90
3564;DHT22;1796;52.388;13.096;2023-03-16T04:42:42;-2.90;99.90
3564;DHT22;1796;52.388;13.096;2023-03-16T04:45:10;-3.00;99.90
3564;DHT22;1796;52.388;13.096;2023-03-16T04:47:39;-3.00;99.90
3564;DHT22;1796;52.388;13.096;2023-03-16T04:50:07;-3.00;99.90
3564;DHT22;1796;52.388;13.096;2023-03-16T04:52:35;-3.10;99.90
3564;DHT22;1796;52.388;13.096;2023-03-16T04:55:02;-3.00;99.90
3564;DHT22;1796;52.388;13.096;2023-03-16T04:57:29;-3.10;99.90
3564;DHT22;1796;52.388;13.096;2023-03-16T04:59:56;-3.20;99.90
3564;DHT22;1796;52.388;13.096;2023-03-16T05:02:23;-3.20;99.90
3564;DHT22;1796;52.388;13.096;2023-03-16T05:04:52;-3.10;99.90
3564;DHT22;1796;52.388;13.096;2023-03-16T05:07:19;-3.20;99.90
3564;DHT22;1796;52.388;13.096;2023-03-16T05:09:46;-3.20;99.90
3564;DHT22;1796;52.388;13.096;2023-03-16T05:12:13;-3.20;99.90
3564;DHT22;1796;52.388;13.096;2023-03-16T05:14:40;-3.20;99.90
3564;DHT22;1796;52.388;13.096;2023-03-16T05:17:07;-3.40;99.90
3564;DHT22;1796;52.388;13.096;2023-03-16T05:19:34;-3.40;99.90
3564;DHT22;1796;52.388;13.096;2023-03-16T05:22:03;-3.40;99.90
3564;DHT22;1796;52.388;13.096;2023-03-16T05:24:31;-3.40;99.90
3564;DHT22;1796;52.388;13.096;2023-03-16T05:26:58;-3.40;99.90
3564;DHT22;1796;52.388;13.096;2023-03-16T05:29:27;-3.40;99.90
3564;DHT22;1796;52.388;13.096;2023-03-16T05:31:55;-3.40;99.90
3564;DHT22;1796;52.388;13.096;2023-03-16T05:34:22;-3.30;99.90
3564;DHT22;1796;52.388;13.096;2023-03-16T05:36:49;-3.10;99.90
3564;DHT22;1796;52.388;13.096;2023-03-16T05:39:18;-2.90;99.90
3564;DHT22;1796;52.388;13.096;2023-03-16T05:41:45;-2.90;99.90
3564;DHT22;1796;52.388;13.096;2023-03-16T05:44:12;-2.70;99.90
3564;DHT22;1796;52.388;13.096;2023-03-16T05:46:39;-2.50;99.90
3564;DHT22;1796;52.388;13.096;2023-03-16T05:49:06;-2.30;99.90
3564;DHT22;1796;52.388;13.096;2023-03-16T05:51:33;-2.10;99.90
3564;DHT22;1796;52.388;13.096;2023-03-16T05:53:59;-1.80;99.90
3564;DHT22;1796;52.388;13.096;2023-03-16T05:56:28;-1.60;99.90
3564;DHT22;1796;52.388;13.096;2023-03-16T05:58:56;-1.50;99.90
3564;DHT22;1796;52.388;13.096;2023-03-16T06:01:25;-1.30;99.90
3564;DHT22;1796;52.388;13.096;2023-03-16T06:03:52;-1.20;99.90
3564;DHT22;1796;52.388;13.096;2023-03-16T06:06:20;-1.20;99.90
3564;DHT22;1796;52.388;13.096;2023-03-16T06:08:48;-0.90;99.90
3564;DHT22;1796;52.388;13.096;2023-03-16T06:11:15;-0.70;99.90
3564;DHT22;1796;52.388;13.096;2023-03-16T06:13:43;-0.60;99.90
3564;DHT22;1796;52.388;13.096;2023-03-16T06:16:10;-0.40;99.90
3564;DHT22;1796;52.388;13.096;2023-03-16T06:18:39;-0.20;99.90
3564;DHT22;1796;52.388;13.096;2023-03-16T06:21:06;0.10;99.90
3564;DHT22;1796;52.388;13.096;2023-03-16T06:23:33;0.30;99.90
3564;DHT22;1796;52.388;13.096;2023-03-16T06:26:00;0.50;99.90
3564;DHT22;1796;52.388;13.096;2023-03-16T06:28:27;0.60;99.90
3564;DHT22;1796;52.388;13.096;2023-03-16T06:30:56;0.90;99.90
3564;DHT22;1796;52.388;13.096;2023-03-16T06:33:24;1.00;99.90
3564;DHT22;1796;52.388;13.096;2023-03-16T06:35:51;1.20;99.90
3564;DHT22;1796;52.388;13.096;2023-03-16T06:38:18;1.30;99.90
3564;DHT22;1796;52.388;13.096;2023-03-16T06:40:50;1.40;99.90
3564;DHT22;1796;52.388;13.096;2023-03-16T06:43:18;1.80;99.90
3564;DHT22;1796;52.388;13.096;2023-03-16T06:45:45;2.00;99.90
3564;DHT22;1796;52.388;13.096;2023-03-16T06:48:13;2.10;99.90
3564;DHT22;1796;52.388;13.096;2023-03-16T06:50:40;2.60;99.90
3564;DHT22;1796;52.388;13.096;2023-03-16T06:53:08;2.70;99.90
3564;DHT22;1796;52.388;13.096;2023-03-16T06:55:35;3.30;99.90
3564;DHT22;1796;52.388;13.096;2023-03-16T06:58:02;3.40;99.90
3564;DHT22;1796;52.388;13.096;2023-03-16T07:00:29;3.50;99.90
3564;DHT22;1796;52.388;13.096;2023-03-16T07:02:58;3.80;99.90
3564;DHT22;1796;52.388;13.096;2023-03-16T07:05:27;4.00;99.90
3564;DHT22;1796;52.388;13.096;2023-03-16T07:07:55;4.40;99.90
3564;DHT22;1796;52.388;13.096;2023-03-16T07:10:23;4.50;99.90
3564;DHT22;1796;52.388;13.096;2023-03-16T07:12:50;4.60;99.90
3564;DHT22;1796;52.388;13.096;2023-03-16T07:15:17;4.80;99.90
3564;DHT22;1796;52.388;13.096;2023-03-16T07:17:45;5.10;99.90
3564;DHT22;1796;52.388;13.096;2023-03-16T07:20:12;4.80;99.90
3564;DHT22;1796;52.388;13.096;2023-03-16T07:22:41;4.90;99.90
3564;DHT22;1796;52.388;13.096;2023-03-16T07:25:08;4.70;99.90
3564;DHT22;1796;52.388;13.096;2023-03-16T07:27:36;4.40;99.90
3564;DHT22;1796;52.388;13.096;2023-03-16T07:30:03;4.20;99.90
3564;DHT22;1796;52.388;13.096;2023-03-16T07:32:31;4.00;99.90
3564;DHT22;1796;52.388;13.096;2023-03-16T07:34:58;4.10;99.90
3564;DHT22;1796;52.388;13.096;2023-03-16T07:37:25;4.20;99.90
3564;DHT22;1796;52.388;13.096;2023-03-16T07:39:53;4.20;99.90
3564;DHT22;1796;52.388;13.096;2023-03-16T07:42:20;4.10;99.90
3564;DHT22;1796;52.388;13.096;2023-03-16T07:44:48;4.10;99.90
3564;DHT22;1796;52.388;13.096;2023-03-16T07:47:16;4.00;99.90
3564;DHT22;1796;52.388;13.096;2023-03-16T07:49:43;3.90;99.90
3564;DHT22;1796;52.388;13.096;2023-03-16T07:52:10;3.90;99.90
3564;DHT22;1796;52.388;13.096;2023-03-16T07:54:38;3.80;99.90
3564;DHT22;1796;52.388;13.096;2023-03-16T07:57:07;3.80;99.90
3564;DHT22;1796;52.388;13.096;2023-03-16T07:59:34;3.80;99.90
3564;DHT22;1796;52.388;13.096;2023-03-16T08:02:01;3.90;99.90
3564;DHT22;1796;52.388;13.096;2023-03-16T08:04:28;3.80;99.90
3564;DHT22;1796;52.388;13.096;2023-03-16T08:06:55;3.70;99.90
3564;DHT22;1796;52.388;13.096;2023-03-16T08:09:25;3.50;99.90
3564;DHT22;1796;52.388;13.096;2023-03-16T08:11:52;3.40;99.90
3564;DHT22;1796;52.388;13.096;2023-03-16T08:14:20;3.40;99.90
3564;DHT22;1796;52.388;13.096;2023-03-16T08:16:48;3.30;99.90
3564;DHT22;1796;52.388;13.096;2023-03-16T08:19:15;3.20;99.90
3564;DHT22;1796;52.388;13.096;2023-03-16T08:21:44;3.10;99.90
3564;DHT22;1796;52.388;13.096;2023-03-16T08:24:11;3.00;99.90
3564;DHT22;1796;52.388;13.096;2023-03-16T08:26:38;2.90;99.90
3564;DHT22;1796;52.388;13.096;2023-03-16T08:29:05;2.90;99.90
3564;DHT22;1796;52.388;13.096;2023-03-16T08:31:34;2.90;99.90
3564;DHT22;1796;52.388;13.096;2023-03-16T08:34:01;2.80;99.90
3564;DHT22;1796;52.388;13.096;2023-03-16T08:36:29;2.70;99.90
3564;DHT22;1796;52.388;13.096;2023-03-16T08:38:56;2.60;99.90
3564;DHT22;1796;52.388;13.096;2023-03-16T08:41:23;2.70;99.90
3564;DHT22;1796;52.388;13.096;2023-03-16T08:43:50;2.60;99.90
3564;DHT22;1796;52.388;13.096;2023-03-16T08:46:17;2.60;99.90
3564;DHT22;1796;52.388;13.096;2023-03-16T08:48:47;2.70;99.90
3564;DHT22;1796;52.388;13.096;2023-03-16T08:51:14;2.60;99.90
3564;DHT22;1796;52.388;13.096;2023-03-16T08:53:42;2.60;99.90
3564;DHT22;1796;52.388;13.096;2023-03-16T08:56:11;2.80;99.90
3564;DHT22;1796;52.388;13.096;2023-03-16T08:58:39;2.90;99.90
3564;DHT22;1796;52.388;13.096;2023-03-16T09:01:10;3.10;99.90
3564;DHT22;1796;52.388;13.096;2023-03-16T09:03:38;3.20;99.90
3564;DHT22;1796;52.388;13.096;2023-03-16T09:06:10;3.30;99.90
3564;DHT22;1796;52.388;13.096;2023-03-16T09:08:38;3.60;99.90
3564;DHT22;1796;52.388;13.096;2023-03-16T09:11:07;3.70;99.90
3564;DHT22;1796;52.388;13.096;2023-03-16T09:13:35;3.80;99.90
3564;DHT22;1796;52.388;13.096;2023-03-16T09:16:05;3.90;99.90
3564;DHT22;1796;52.388;13.096;2023-03-16T09:18:32;3.90;99.90
3564;DHT22;1796;52.388;13.096;2023-03-16T09:21:01;4.10;99.90
3564;DHT22;1796;52.388;13.096;2023-03-16T09:23:30;4.00;99.90
3564;DHT22;1796;52.388;13.096;2023-03-16T09:26:00;4.30;99.90
3564;DHT22;1796;52.388;13.096;2023-03-16T09:28:28;4.50;99.90
3564;DHT22;1796;52.388;13.096;2023-03-16T09:30:56;4.50;99.90
3564;DHT22;1796;52.388;13.096;2023-03-16T09:33:24;4.70;99.90
3564;DHT22;1796;52.388;13.096;2023-03-16T09:35:53;4.90;99.90
3564;DHT22;1796;52.388;13.096;2023-03-16T09:38:22;4.80;99.90
3564;DHT22;1796;52.388;13.096;2023-03-16T09:40:57;4.90;99.90
3564;DHT22;1796;52.388;13.096;2023-03-16T09:43:46;5.10;99.90
3564;DHT22;1796;52.388;13.096;2023-03-16T09:46:22;5.20;99.90
3564;DHT22;1796;52.388;13.096;2023-03-16T09:48:50;5.40;99.90
3564;DHT22;1796;52.388;13.096;2023-03-16T09:51:22;5.60;99.90
3564;DHT22;1796;52.388;13.096;2023-03-16T09:53:56;5.70;99.90
3564;DHT22;1796;52.388;13.096;2023-03-16T09:56:29;5.70;99.90
3564;DHT22;1796;52.388;13.096;2023-03-16T09:58:59;5.80;99.90
3564;DHT22;1796;52.388;13.096;2023-03-16T10:01:36;5.70;99.90
3564;DHT22;1796;52.388;13.096;2023-03-16T10:04:15;5.70;99.90
3564;DHT22;1796;52.388;13.096;2023-03-16T10:06:54;5.80;99.90
3564;DHT22;1796;52.388;13.096;2023-03-16T10:09:32;6.00;99.90
3564;DHT22;1796;52.388;13.096;2023-03-16T10:12:02;5.90;99.90
3564;DHT22;1796;52.388;13.096;2023-03-16T10:14:37;5.80;99.90
3564;DHT22;1796;52.388;13.096;2023-03-16T10:17:12;5.90;99.90
3564;DHT22;1796;52.388;13.096;2023-03-16T10:19:44;5.90;99.90
3564;DHT22;1796;52.388;13.096;2023-03-16T10:22:18;6.10;99.90
3564;DHT22;1796;52.388;13.096;2023-03-16T10:24:56;6.10;99.90
3564;DHT22;1796;52.388;13.096;2023-03-16T10:27:28;6.20;99.90
3564;DHT22;1796;52.388;13.096;2023-03-16T10:29:55;6.20;99.90
3564;DHT22;1796;52.388;13.096;2023-03-16T10:32:22;6.20;99.90
3564;DHT22;1796;52.388;13.096;2023-03-16T10:34:57;6.30;99.90
3564;DHT22;1796;52.388;13.096;2023-03-16T10:37:29;6.30;99.90
3564;DHT22;1796;52.388;13.096;2023-03-16T10:39:57;6.40;99.90
3564;DHT22;1796;52.388;13.096;2023-03-16T10:42:26;6.20;99.90
3564;DHT22;1796;52.388;13.096;2023-03-16T10:44:57;6.20;99.90
3564;DHT22;1796;52.388;13.096;2023-03-16T10:47:28;6.20;99.90
3564;DHT22;1796;52.388;13.096;2023-03-16T10:49:55;6.30;99.90
3564;DHT22;1796;52.388;13.096;2023-03-16T10:52:25;6.30;99.90
3564;DHT22;1796;52.388;13.096;2023-03-16T10:54:56;6.40;99.90
3564;DHT22;1796;52.388;13.096;2023-03-16T10:57:30;6.30;99.90
3564;DHT22;1796;52.388;13.096;2023-03-16T11:00:02;6.50;99.90
3564;DHT22;1796;52.388;13.096;2023-03-16T11:02:41;6.40;99.90
3564;DHT22;1796;52.388;13.096;2023-03-16T11:05:13;6.50;99.90
3564;DHT22;1796;52.388;13.096;2023-03-16T11:07:47;6.60;99.90
3564;DHT22;1796;52.388;13.096;2023-03-16T11:10:24;6.60;99.90
3564;DHT22;1796;52.388;13.096;2023-03-16T11:13:00;6.70;99.90
3564;DHT22;1796;52.388;13.096;2023-03-16T11:15:35;6.70;99.90
3564;DHT22;1796;52.388;13.096;2023-03-16T11:18:03;6.90;99.90
3564;DHT22;1796;52.388;13.096;2023-03-16T11:20:32;6.80;99.90
3564;DHT22;1796;52.388;13.096;2023-03-16T11:23:00;6.80;99.90
3564;DHT22;1796;52.388;13.096;2023-03-16T11:25:30;6.70;99.90
3564;DHT22;1796;52.388;13.096;2023-03-16T11:28:05;6.90;99.90
3564;DHT22;1796;52.388;13.096;2023-03-16T11:30:40;7.10;99.90
3564;DHT22;1796;52.388;13.096;2023-03-16T11:33:11;7.00;99.90
3564;DHT22;1796;52.388;13.096;2023-03-16T11:35:44;7.00;99.90
3564;DHT22;1796;52.388;13.096;2023-03-16T11:38:15;6.90;99.90
3564;DHT22;1796;52.388;13.096;2023-03-16T11:40:53;7.00;99.90
3564;DHT22;1796;52.388;13.096;2023-03-16T11:43:42;7.00;99.90
3564;DHT22;1796;52.388;13.096;2023-03-16T11:46:14;7.00;99.90
3564;DHT22;1796;52.388;13.096;2023-03-16T11:48:47;7.00;99.90
3564;DHT22;1796;52.388;13.096;2023-03-16T11:51:28;7.00;99.90
3564;DHT22;1796;52.388;13.096;2023-03-16T11:54:06;7.10;99.90
3564;DHT22;1796;52.388;13.096;2023-03-16T11:56:41;7.00;99.90
3564;DHT22;1796;52.388;13.096;2023-03-16T11:59:24;7.10;99.90
3564;DHT22;1796;52.388;13.096;2023-03-16T12:02:03;7.10;99.90
3564;DHT22;1796;52.388;13.096;2023-03-16T12:04:51;7.20;99.90
3564;DHT22;1796;52.388;13.096;2023-03-16T12:07:36;7.30;99.90
3564;DHT22;1796;52.388;13.096;2023-03-16T12:10:15;7.30;99.90
3564;DHT22;1796;52.388;13.096;2023-03-16T12:12:58;7.30;99.90
3564;DHT22;1796;52.388;13.096;2023-03-16T12:15:38;7.50;99.90
3564;DHT22;1796;52.388;13.096;2023-03-16T12:18:12;7.60;99.90
3564;DHT22;1796;52.388;13.096;2023-03-16T12:20:46;7.70;99.90
3564;DHT22;1796;52.388;13.096;2023-03-16T12:23:17;7.60;99.90
3564;DHT22;1796;52.388;13.096;2023-03-16T12:25:48;7.60;99.90
3564;DHT22;1796;52.388;13.096;2023-03-16T12:28:21;7.60;99.90
3564;DHT22;1796;52.388;13.096;2023-03-16T12:30:59;7.70;99.90
3564;DHT22;1796;52.388;13.096;2023-03-16T12:33:38;7.70;99.90
3564;DHT22;1796;52.388;13.096;2023-03-16T12:39:01;7.80;99.90
3564;DHT22;1796;52.388;13.096;2023-03-16T12:41:38;7.90;99.90
3564;DHT22;1796;52.388;13.096;2023-03-16T12:44:13;8.00;99.90
3564;DHT22;1796;52.388;13.096;2023-03-16T12:46:50;8.10;99.90
3564;DHT22;1796;52.388;13.096;2023-03-16T12:49:22;8.10;99.90
3564;DHT22;1796;52.388;13.096;2023-03-16T12:51:58;8.10;99.90
3564;DHT22;1796;52.388;13.096;2023-03-16T12:54:26;8.10;99.90
3564;DHT22;1796;52.388;13.096;2023-03-16T12:57:00;7.90;99.90
3564;DHT22;1796;52.388;13.096;2023-03-16T12:59:37;7.90;99.90
3564;DHT22;1796;52.388;13.096;2023-03-16T13:02:13;8.00;99.90
3564;DHT22;1796;52.388;13.096;2023-03-16T13:04:43;7.90;99.90
3564;DHT22;1796;52.388;13.096;2023-03-16T13:07:16;8.00;99.90
3564;DHT22;1796;52.388;13.096;2023-03-16T13:09:46;8.10;99.90
3564;DHT22;1796;52.388;13.096;2023-03-16T13:12:22;8.00;99.90
3564;DHT22;1796;52.388;13.096;2023-03-16T13:14:49;8.20;99.90
3564;DHT22;1796;52.388;13.096;2023-03-16T13:17:28;8.20;99.90
3564;DHT22;1796;52.388;13.096;2023-03-16T13:20:24;8.20;99.90
3564;DHT22;1796;52.388;13.096;2023-03-16T13:23:07;8.20;99.90
3564;DHT22;1796;52.388;13.096;2023-03-16T13:25:39;8.20;99.90
3564;DHT22;1796;52.388;13.096;2023-03-16T13:28:11;8.10;99.90
3564;DHT22;1796;52.388;13.096;2023-03-16T13:30:45;8.10;99.90
3564;DHT22;1796;52.388;13.096;2023-03-16T13:33:19;8.30;99.90
3564;DHT22;1796;52.388;13.096;2023-03-16T13:35:48;8.30;99.90
3564;DHT22;1796;52.388;13.096;2023-03-16T13:38:18;8.30;99.90
3564;DHT22;1796;52.388;13.096;2023-03-16T13:40:48;8.30;99.90
3564;DHT22;1796;52.388;13.096;2023-03-16T13:43:17;8.50;99.90
3564;DHT22;1796;52.388;13.096;2023-03-16T13:45:45;8.50;99.90
3564;DHT22;1796;52.388;13.096;2023-03-16T13:48:13;8.60;99.90
3564;DHT22;1796;52.388;13.096;2023-03-16T13:50:42;8.50;99.90
3564;DHT22;1796;52.388;13.096;2023-03-16T13:53:13;8.50;99.90
3564;DHT22;1796;52.388;13.096;2023-03-16T13:55:44;8.50;99.90
3564;DHT22;1796;52.388;13.096;2023-03-16T13:58:19;8.40;99.90
3564;DHT22;1796;52.388;13.096;2023-03-16T14:00:46;8.40;99.90
3564;DHT22;1796;52.388;13.096;2023-03-16T14:03:15;8.50;99.90
3564;DHT22;1796;52.388;13.096;2023-03-16T14:05:44;8.50;99.90
3564;DHT22;1796;52.388;13.096;2023-03-16T14:08:16;8.50;99.90
3564;DHT22;1796;52.388;13.096;2023-03-16T14:10:44;8.60;99.90
3564;DHT22;1796;52.388;13.096;2023-03-16T14:13:23;8.60;99.90
3564;DHT22;1796;52.388;13.096;2023-03-16T14:15:52;8.70;99.90
3564;DHT22;1796;52.388;13.096;2023-03-16T14:18:22;8.70;99.90
3564;DHT22;1796;52.388;13.096;2023-03-16T14:20:54;8.80;99.90
3564;DHT22;1796;52.388;13.096;2023-03-16T14:23:23;8.80;99.90
3564;DHT22;1796;52.388;13.096;2023-03-16T14:25:51;8.70;99.90
3564;DHT22;1796;52.388;13.096;2023-03-16T14:28:21;8.60;99.90
3564;DHT22;1796;52.388;13.096;2023-03-16T14:30:49;8.60;99.90
3564;DHT22;1796;52.388;13.096;2023-03-16T14:33:26;8.70;99.90
3564;DHT22;1796;52.388;13.096;2023-03-16T14:35:57;8.80;99.90
3564;DHT22;1796;52.388;13.096;2023-03-16T14:38:29;8.80;99.90
3564;DHT22;1796;52.388;13.096;2023-03-16T14:41:01;8.80;99.90
3564;DHT22;1796;52.388;13.096;2023-03-16T14:43:30;8.70;99.90
3564;DHT22;1796;52.388;13.096;2023-03-16T14:45:58;8.60;99.90
3564;DHT22;1796;52.388;13.096;2023-03-16T14:48:26;8.60;99.90
3564;DHT22;1796;52.388;13.096;2023-03-16T14:50:58;8.50;99.90
3564;DHT22;1796;52.388;13.096;2023-03-16T14:53:26;8.60;99.90
3564;DHT22;1796;52.388;13.096;2023-03-16T14:55:53;8.50;99.90
3564;DHT22;1796;52.388;13.096;2023-03-16T14:58:20;8.60;99.90
3564;DHT22;1796;52.388;13.096;2023-03-16T15:00:47;8.70;99.90
3564;DHT22;1796;52.388;13.096;2023-03-16T15:03:19;8.60;99.90
3564;DHT22;1796;52.388;13.096;2023-03-16T15:05:49;8.50;99.90
3564;DHT22;1796;52.388;13.096;2023-03-16T15:08:22;8.50;99.90
3564;DHT22;1796;52.388;13.096;2023-03-16T15:10:50;8.50;99.90
3564;DHT22;1796;52.388;13.096;2023-03-16T15:13:19;8.50;99.90
3564;DHT22;1796;52.388;13.096;2023-03-16T15:15:59;8.60;99.90
3564;DHT22;1796;52.388;13.096;2023-03-16T15:18:26;8.50;99.90
3564;DHT22;1796;52.388;13.096;2023-03-16T15:20:53;8.50;99.90
3564;DHT22;1796;52.388;13.096;2023-03-16T15:23:22;8.50;99.90
3564;DHT22;1796;52.388;13.096;2023-03-16T15:25:50;8.50;99.90
3564;DHT22;1796;52.388;13.096;2023-03-16T15:28:23;8.40;99.90
3564;DHT22;1796;52.388;13.096;2023-03-16T15:30:52;8.40;99.90
3564;DHT22;1796;52.388;13.096;2023-03-16T15:33:19;8.40;99.90
3564;DHT22;1796;52.388;13.096;2023-03-16T15:35:48;8.50;99.90
3564;DHT22;1796;52.388;13.096;2023-03-16T15:38:18;8.40;99.90
3564;DHT22;1796;52.388;13.096;2023-03-16T15:40:48;8.30;99.90
3564;DHT22;1796;52.388;13.096;2023-03-16T15:43:17;8.30;99.90
3564;DHT22;1796;52.388;13.096;2023-03-16T15:45:45;8.40;99.90
3564;DHT22;1796;52.388;13.096;2023-03-16T15:48:13;8.30;99.90
3564;DHT22;1796;52.388;13.096;2023-03-16T15:50:43;8.30;99.90
3564;DHT22;1796;52.388;13.096;2023-03-16T15:53:14;8.30;99.90
3564;DHT22;1796;52.388;13.096;2023-03-16T15:55:47;8.20;99.90
3564;DHT22;1796;52.388;13.096;2023-03-16T15:58:21;8.10;99.90
3564;DHT22;1796;52.388;13.096;2023-03-16T16:00:49;8.20;99.90
3564;DHT22;1796;52.388;13.096;2023-03-16T16:03:16;8.20;99.90
3564;DHT22;1796;52.388;13.096;2023-03-16T16:05:43;8.20;99.90
3564;DHT22;1796;52.388;13.096;2023-03-16T16:08:10;8.10;99.90
3564;DHT22;1796;52.388;13.096;2023-03-16T16:10:37;8.10;99.90
3564;DHT22;1796;52.388;13.096;2023-03-16T16:13:11;8.00;99.90